sensor_id;sensor_type;location;lat;lon;timestamp;P1;durP1;ratioP1;P2;durP2;ratioP2
76978;SDS011;65911;47.502;19.148;2023-05-13T00:02:04;2.95;;;2.67;;
76978;SDS011;65911;47.502;19.148;2023-05-13T00:05:09;2.97;;;2.50;;
76978;SDS011;65911;47.502;19.148;2023-05-13T00:08:11;3.22;;;2.20;;
76978;SDS011;65911;47.502;19.148;2023-05-13T00:11:13;3.85;;;2.38;;
76978;SDS011;65911;47.502;19.148;2023-05-13T00:14:16;3.30;;;2.60;;
76978;SDS011;65911;47.502;19.148;2023-05-13T00:17:18;5.03;;;2.53;;
76978;SDS011;65911;47.502;19.148;2023-05-13T00:20:20;3.65;;;2.65;;
76978;SDS011;65911;47.502;19.148;2023-05-13T00:23:23;3.63;;;2.67;;
76978;SDS011;65911;47.502;19.148;2023-05-13T00:26:25;3.55;;;2.60;;
76978;SDS011;65911;47.502;19.148;2023-05-13T00:29:27;3.38;;;2.53;;
76978;SDS011;65911;47.502;19.148;2023-05-13T00:32:29;4.30;;;2.83;;
76978;SDS011;65911;47.502;19.148;2023-05-13T00:35:32;2.50;;;2.27;;
76978;SDS011;65911;47.502;19.148;2023-05-13T00:38:34;3.10;;;2.50;;
76978;SDS011;65911;47.502;19.148;2023-05-13T00:41:37;3.22;;;2.35;;
76978;SDS011;65911;47.502;19.148;2023-05-13T00:44:40;3.57;;;2.63;;
76978;SDS011;65911;47.502;19.148;2023-05-13T00:47:42;2.35;;;2.15;;
76978;SDS011;65911;47.502;19.148;2023-05-13T00:50:44;3.17;;;2.22;;
76978;SDS011;65911;47.502;19.148;2023-05-13T00:53:47;2.53;;;2.33;;
76978;SDS011;65911;47.502;19.148;2023-05-13T00:56:49;3.47;;;2.28;;
76978;SDS011;65911;47.502;19.148;2023-05-13T00:59:55;4.00;;;2.58;;
76978;SDS011;65911;47.502;19.148;2023-05-13T01:03:11;3.42;;;2.28;;
76978;SDS011;65911;47.502;19.148;2023-05-13T01:10:22;3.10;;;2.08;;
76978;SDS011;65911;47.502;19.148;2023-05-13T01:13:22;2.97;;;2.30;;
76978;SDS011;65911;47.502;19.148;2023-05-13T01:16:46;3.03;;;2.43;;
76978;SDS011;65911;47.502;19.148;2023-05-13T01:19:51;3.33;;;2.30;;
76978;SDS011;65911;47.502;19.148;2023-05-13T01:22:56;3.60;;;2.80;;
76978;SDS011;65911;47.502;19.148;2023-05-13T01:25:58;2.90;;;2.40;;
76978;SDS011;65911;47.502;19.148;2023-05-13T01:29:00;2.75;;;2.30;;
76978;SDS011;65911;47.502;19.148;2023-05-13T01:32:03;3.70;;;2.50;;
76978;SDS011;65911;47.502;19.148;2023-05-13T01:35:06;3.22;;;2.92;;
76978;SDS011;65911;47.502;19.148;2023-05-13T01:38:13;3.77;;;2.70;;
76978;SDS011;65911;47.502;19.148;2023-05-13T01:41:21;3.60;;;2.67;;
76978;SDS011;65911;47.502;19.148;2023-05-13T01:44:23;4.20;;;2.90;;
76978;SDS011;65911;47.502;19.148;2023-05-13T01:47:26;2.80;;;2.40;;
76978;SDS011;65911;47.502;19.148;2023-05-13T01:50:29;3.05;;;2.58;;
76978;SDS011;65911;47.502;19.148;2023-05-13T01:53:32;3.78;;;2.72;;
76978;SDS011;65911;47.502;19.148;2023-05-13T01:56:34;2.55;;;2.33;;
76978;SDS011;65911;47.502;19.148;2023-05-13T01:59:37;4.07;;;2.55;;
76978;SDS011;65911;47.502;19.148;2023-05-13T02:02:39;3.65;;;2.80;;
76978;SDS011;65911;47.502;19.148;2023-05-13T02:05:41;3.17;;;2.35;;
76978;SDS011;65911;47.502;19.148;2023-05-13T02:08:44;3.20;;;2.63;;
76978;SDS011;65911;47.502;19.148;2023-05-13T02:11:46;3.88;;;2.80;;
76978;SDS011;65911;47.502;19.148;2023-05-13T02:14:49;4.15;;;2.83;;
76978;SDS011;65911;47.502;19.148;2023-05-13T02:17:51;3.07;;;2.50;;
76978;SDS011;65911;47.502;19.148;2023-05-13T02:20:54;2.28;;;2.08;;
76978;SDS011;65911;47.502;19.148;2023-05-13T02:23:57;3.78;;;2.80;;
76978;SDS011;65911;47.502;19.148;2023-05-13T02:26:59;3.85;;;2.63;;
76978;SDS011;65911;47.502;19.148;2023-05-13T02:30:01;3.65;;;2.95;;
76978;SDS011;65911;47.502;19.148;2023-05-13T02:33:03;3.00;;;2.60;;
76978;SDS011;65911;47.502;19.148;2023-05-13T02:36:06;2.42;;;2.05;;
76978;SDS011;65911;47.502;19.148;2023-05-13T02:39:08;3.60;;;2.53;;
76978;SDS011;65911;47.502;19.148;2023-05-13T02:42:11;3.60;;;2.97;;
76978;SDS011;65911;47.502;19.148;2023-05-13T02:45:13;3.85;;;2.58;;
76978;SDS011;65911;47.502;19.148;2023-05-13T02:48:20;3.60;;;2.80;;
76978;SDS011;65911;47.502;19.148;2023-05-13T02:51:24;3.60;;;2.75;;
76978;SDS011;65911;47.502;19.148;2023-05-13T02:54:27;3.45;;;2.50;;
76978;SDS011;65911;47.502;19.148;2023-05-13T02:57:29;3.05;;;2.28;;
76978;SDS011;65911;47.502;19.148;2023-05-13T03:00:32;2.83;;;2.50;;
76978;SDS011;65911;47.502;19.148;2023-05-13T03:03:35;3.17;;;2.40;;
76978;SDS011;65911;47.502;19.148;2023-05-13T03:06:38;2.92;;;2.50;;
76978;SDS011;65911;47.502;19.148;2023-05-13T03:09:40;3.73;;;2.37;;
76978;SDS011;65911;47.502;19.148;2023-05-13T03:12:43;2.67;;;2.42;;
76978;SDS011;65911;47.502;19.148;2023-05-13T03:15:45;3.08;;;2.40;;
76978;SDS011;65911;47.502;19.148;2023-05-13T03:18:47;3.50;;;2.60;;
76978;SDS011;65911;47.502;19.148;2023-05-13T03:21:51;2.83;;;2.50;;
76978;SDS011;65911;47.502;19.148;2023-05-13T03:24:53;3.38;;;2.45;;
76978;SDS011;65911;47.502;19.148;2023-05-13T03:27:59;2.90;;;2.28;;
76978;SDS011;65911;47.502;19.148;2023-05-13T03:31:06;2.50;;;2.20;;
76978;SDS011;65911;47.502;19.148;2023-05-13T03:34:12;4.03;;;2.50;;
76978;SDS011;65911;47.502;19.148;2023-05-13T03:37:14;5.03;;;2.25;;
76978;SDS011;65911;47.502;19.148;2023-05-13T03:40:17;2.47;;;2.27;;
76978;SDS011;65911;47.502;19.148;2023-05-13T03:43:21;2.50;;;2.30;;
76978;SDS011;65911;47.502;19.148;2023-05-13T03:46:29;3.40;;;2.10;;
76978;SDS011;65911;47.502;19.148;2023-05-13T03:49:31;3.50;;;2.07;;
76978;SDS011;65911;47.502;19.148;2023-05-13T03:52:34;2.63;;;2.08;;
76978;SDS011;65911;47.502;19.148;2023-05-13T03:55:36;3.80;;;2.33;;
76978;SDS011;65911;47.502;19.148;2023-05-13T03:58:39;5.50;;;2.30;;
76978;SDS011;65911;47.502;19.148;2023-05-13T04:01:41;3.33;;;2.05;;
76978;SDS011;65911;47.502;19.148;2023-05-13T04:04:43;2.13;;;1.90;;
76978;SDS011;65911;47.502;19.148;2023-05-13T04:07:45;4.07;;;2.25;;
76978;SDS011;65911;47.502;19.148;2023-05-13T04:10:48;2.30;;;2.10;;
76978;SDS011;65911;47.502;19.148;2023-05-13T04:13:50;4.28;;;2.10;;
76978;SDS011;65911;47.502;19.148;2023-05-13T04:16:52;4.00;;;2.15;;
76978;SDS011;65911;47.502;19.148;2023-05-13T04:19:54;3.63;;;1.97;;
76978;SDS011;65911;47.502;19.148;2023-05-13T04:22:57;3.25;;;2.00;;
76978;SDS011;65911;47.502;19.148;2023-05-13T04:25:59;3.75;;;2.22;;
76978;SDS011;65911;47.502;19.148;2023-05-13T04:29:02;3.17;;;2.10;;
76978;SDS011;65911;47.502;19.148;2023-05-13T04:32:05;2.80;;;1.90;;
76978;SDS011;65911;47.502;19.148;2023-05-13T04:35:08;4.80;;;2.40;;
76978;SDS011;65911;47.502;19.148;2023-05-13T04:38:11;3.40;;;2.25;;
76978;SDS011;65911;47.502;19.148;2023-05-13T04:41:13;5.00;;;2.10;;
76978;SDS011;65911;47.502;19.148;2023-05-13T04:44:18;2.60;;;2.10;;
76978;SDS011;65911;47.502;19.148;2023-05-13T04:47:23;2.40;;;1.88;;
76978;SDS011;65911;47.502;19.148;2023-05-13T04:50:26;4.27;;;2.33;;
76978;SDS011;65911;47.502;19.148;2023-05-13T04:53:29;3.92;;;1.85;;
76978;SDS011;65911;47.502;19.148;2023-05-13T04:56:34;2.50;;;2.10;;
76978;SDS011;65911;47.502;19.148;2023-05-13T04:59:36;2.50;;;2.30;;
76978;SDS011;65911;47.502;19.148;2023-05-13T05:02:41;3.00;;;2.05;;
76978;SDS011;65911;47.502;19.148;2023-05-13T05:05:43;3.03;;;2.03;;
76978;SDS011;65911;47.502;19.148;2023-05-13T05:08:47;2.58;;;2.25;;
76978;SDS011;65911;47.502;19.148;2023-05-13T05:11:50;2.50;;;1.97;;
76978;SDS011;65911;47.502;19.148;2023-05-13T05:14:54;3.13;;;2.20;;
76978;SDS011;65911;47.502;19.148;2023-05-13T05:17:56;2.28;;;2.08;;
76978;SDS011;65911;47.502;19.148;2023-05-13T05:20:59;2.60;;;2.33;;
76978;SDS011;65911;47.502;19.148;2023-05-13T05:24:04;2.30;;;2.05;;
76978;SDS011;65911;47.502;19.148;2023-05-13T05:27:07;3.47;;;2.70;;
76978;SDS011;65911;47.502;19.148;2023-05-13T05:30:10;2.53;;;2.30;;
76978;SDS011;65911;47.502;19.148;2023-05-13T05:33:13;2.60;;;2.40;;
76978;SDS011;65911;47.502;19.148;2023-05-13T05:36:19;2.95;;;2.33;;
76978;SDS011;65911;47.502;19.148;2023-05-13T05:39:22;3.90;;;2.20;;
76978;SDS011;65911;47.502;19.148;2023-05-13T05:42:24;3.30;;;2.30;;
76978;SDS011;65911;47.502;19.148;2023-05-13T05:45:27;3.22;;;2.28;;
76978;SDS011;65911;47.502;19.148;2023-05-13T05:48:29;3.08;;;2.40;;
76978;SDS011;65911;47.502;19.148;2023-05-13T05:51:35;3.10;;;2.40;;
76978;SDS011;65911;47.502;19.148;2023-05-13T05:54:38;3.05;;;2.70;;
76978;SDS011;65911;47.502;19.148;2023-05-13T05:57:41;3.78;;;2.45;;
76978;SDS011;65911;47.502;19.148;2023-05-13T06:00:44;4.18;;;2.63;;
76978;SDS011;65911;47.502;19.148;2023-05-13T06:03:46;2.85;;;2.20;;
76978;SDS011;65911;47.502;19.148;2023-05-13T06:06:50;2.53;;;2.30;;
76978;SDS011;65911;47.502;19.148;2023-05-13T06:09:53;2.85;;;2.30;;
76978;SDS011;65911;47.502;19.148;2023-05-13T06:12:56;2.50;;;2.20;;
76978;SDS011;65911;47.502;19.148;2023-05-13T06:15:58;2.50;;;2.30;;
76978;SDS011;65911;47.502;19.148;2023-05-13T06:19:01;4.20;;;2.72;;
76978;SDS011;65911;47.502;19.148;2023-05-13T06:22:04;3.50;;;2.87;;
76978;SDS011;65911;47.502;19.148;2023-05-13T06:25:06;3.83;;;2.80;;
76978;SDS011;65911;47.502;19.148;2023-05-13T06:28:09;3.85;;;2.85;;
76978;SDS011;65911;47.502;19.148;2023-05-13T06:31:13;3.33;;;2.63;;
76978;SDS011;65911;47.502;19.148;2023-05-13T06:34:17;4.20;;;2.83;;
76978;SDS011;65911;47.502;19.148;2023-05-13T06:37:19;3.78;;;3.13;;
76978;SDS011;65911;47.502;19.148;2023-05-13T06:40:22;3.22;;;2.70;;
76978;SDS011;65911;47.502;19.148;2023-05-13T06:43:25;2.87;;;2.40;;
76978;SDS011;65911;47.502;19.148;2023-05-13T06:46:31;3.08;;;2.78;;
76978;SDS011;65911;47.502;19.148;2023-05-13T06:49:34;3.65;;;2.40;;
76978;SDS011;65911;47.502;19.148;2023-05-13T06:52:36;2.83;;;2.60;;
76978;SDS011;65911;47.502;19.148;2023-05-13T06:55:41;2.70;;;2.40;;
76978;SDS011;65911;47.502;19.148;2023-05-13T06:58:43;3.38;;;2.25;;
76978;SDS011;65911;47.502;19.148;2023-05-13T07:01:45;3.22;;;2.58;;
76978;SDS011;65911;47.502;19.148;2023-05-13T07:04:48;3.05;;;2.58;;
76978;SDS011;65911;47.502;19.148;2023-05-13T07:07:50;4.20;;;2.90;;
76978;SDS011;65911;47.502;19.148;2023-05-13T07:10:54;2.60;;;2.40;;
76978;SDS011;65911;47.502;19.148;2023-05-13T07:13:56;2.60;;;2.20;;
76978;SDS011;65911;47.502;19.148;2023-05-13T07:16:58;3.65;;;2.78;;
76978;SDS011;65911;47.502;19.148;2023-05-13T07:20:01;3.95;;;2.95;;
76978;SDS011;65911;47.502;19.148;2023-05-13T07:23:03;4.17;;;2.70;;
76978;SDS011;65911;47.502;19.148;2023-05-13T07:26:05;3.92;;;2.90;;
76978;SDS011;65911;47.502;19.148;2023-05-13T07:29:07;3.90;;;2.95;;
76978;SDS011;65911;47.502;19.148;2023-05-13T07:32:10;4.55;;;3.38;;
76978;SDS011;65911;47.502;19.148;2023-05-13T07:35:12;3.13;;;2.83;;
76978;SDS011;65911;47.502;19.148;2023-05-13T07:38:15;3.60;;;3.10;;
76978;SDS011;65911;47.502;19.148;2023-05-13T07:41:17;4.10;;;2.88;;
76978;SDS011;65911;47.502;19.148;2023-05-13T07:44:19;5.77;;;3.47;;
76978;SDS011;65911;47.502;19.148;2023-05-13T07:47:22;4.32;;;3.35;;
76978;SDS011;65911;47.502;19.148;2023-05-13T07:50:24;4.35;;;2.80;;
76978;SDS011;65911;47.502;19.148;2023-05-13T07:53:26;3.63;;;2.93;;
76978;SDS011;65911;47.502;19.148;2023-05-13T07:56:29;3.97;;;2.70;;
76978;SDS011;65911;47.502;19.148;2023-05-13T07:59:31;2.65;;;2.40;;
76978;SDS011;65911;47.502;19.148;2023-05-13T08:02:35;3.38;;;1.83;;
76978;SDS011;65911;47.502;19.148;2023-05-13T08:05:39;1.75;;;1.60;;
76978;SDS011;65911;47.502;19.148;2023-05-13T08:08:42;3.47;;;1.77;;
76978;SDS011;65911;47.502;19.148;2023-05-13T08:11:44;2.88;;;1.60;;
76978;SDS011;65911;47.502;19.148;2023-05-13T08:14:46;2.97;;;1.60;;
76978;SDS011;65911;47.502;19.148;2023-05-13T08:17:49;3.38;;;1.80;;
76978;SDS011;65911;47.502;19.148;2023-05-13T08:20:55;3.20;;;2.05;;
76978;SDS011;65911;47.502;19.148;2023-05-13T08:23:57;3.43;;;2.70;;
76978;SDS011;65911;47.502;19.148;2023-05-13T08:26:59;4.22;;;3.03;;
76978;SDS011;65911;47.502;19.148;2023-05-13T08:30:02;3.85;;;2.78;;
76978;SDS011;65911;47.502;19.148;2023-05-13T08:33:05;3.17;;;2.80;;
76978;SDS011;65911;47.502;19.148;2023-05-13T08:36:08;3.83;;;2.90;;
76978;SDS011;65911;47.502;19.148;2023-05-13T08:39:10;4.95;;;3.15;;
76978;SDS011;65911;47.502;19.148;2023-05-13T08:42:14;4.60;;;3.10;;
76978;SDS011;65911;47.502;19.148;2023-05-13T08:45:20;3.77;;;2.80;;
76978;SDS011;65911;47.502;19.148;2023-05-13T08:48:22;4.00;;;2.85;;
76978;SDS011;65911;47.502;19.148;2023-05-13T08:51:25;5.40;;;2.83;;
76978;SDS011;65911;47.502;19.148;2023-05-13T08:54:27;5.27;;;2.87;;
76978;SDS011;65911;47.502;19.148;2023-05-13T08:57:30;5.63;;;2.60;;
76978;SDS011;65911;47.502;19.148;2023-05-13T09:00:33;5.13;;;2.97;;
76978;SDS011;65911;47.502;19.148;2023-05-13T09:03:35;3.35;;;2.70;;
76978;SDS011;65911;47.502;19.148;2023-05-13T09:06:48;4.40;;;2.90;;
76978;SDS011;65911;47.502;19.148;2023-05-13T09:09:50;4.50;;;2.45;;
76978;SDS011;65911;47.502;19.148;2023-05-13T09:12:53;4.07;;;3.15;;
76978;SDS011;65911;47.502;19.148;2023-05-13T09:15:56;2.77;;;2.57;;
76978;SDS011;65911;47.502;19.148;2023-05-13T09:18:59;4.10;;;2.92;;
76978;SDS011;65911;47.502;19.148;2023-05-13T09:22:03;3.53;;;3.22;;
76978;SDS011;65911;47.502;19.148;2023-05-13T09:25:06;3.83;;;2.83;;
76978;SDS011;65911;47.502;19.148;2023-05-13T09:28:13;3.60;;;3.20;;
76978;SDS011;65911;47.502;19.148;2023-05-13T09:31:23;4.15;;;3.10;;
76978;SDS011;65911;47.502;19.148;2023-05-13T09:34:33;3.30;;;2.97;;
76978;SDS011;65911;47.502;19.148;2023-05-13T09:37:36;3.75;;;2.63;;
76978;SDS011;65911;47.502;19.148;2023-05-13T09:40:39;3.88;;;2.85;;
76978;SDS011;65911;47.502;19.148;2023-05-13T09:43:41;3.55;;;2.60;;
76978;SDS011;65911;47.502;19.148;2023-05-13T09:46:46;4.27;;;2.97;;
76978;SDS011;65911;47.502;19.148;2023-05-13T09:49:54;4.93;;;3.20;;
76978;SDS011;65911;47.502;19.148;2023-05-13T09:53:09;3.17;;;2.88;;
76978;SDS011;65911;47.502;19.148;2023-05-13T09:56:12;4.57;;;3.20;;
76978;SDS011;65911;47.502;19.148;2023-05-13T09:59:15;3.42;;;2.97;;
76978;SDS011;65911;47.502;19.148;2023-05-13T10:02:17;3.40;;;2.72;;
76978;SDS011;65911;47.502;19.148;2023-05-13T10:05:19;6.53;;;3.03;;
76978;SDS011;65911;47.502;19.148;2023-05-13T10:08:22;4.30;;;2.90;;
76978;SDS011;65911;47.502;19.148;2023-05-13T10:11:24;3.53;;;3.22;;
76978;SDS011;65911;47.502;19.148;2023-05-13T10:14:28;3.78;;;3.10;;
76978;SDS011;65911;47.502;19.148;2023-05-13T10:17:31;4.77;;;2.90;;
76978;SDS011;65911;47.502;19.148;2023-05-13T10:20:34;4.35;;;3.00;;
76978;SDS011;65911;47.502;19.148;2023-05-13T10:23:36;3.33;;;2.78;;
76978;SDS011;65911;47.502;19.148;2023-05-13T10:26:39;3.43;;;2.70;;
76978;SDS011;65911;47.502;19.148;2023-05-13T10:29:42;3.72;;;2.45;;
76978;SDS011;65911;47.502;19.148;2023-05-13T10:32:45;3.33;;;2.55;;
76978;SDS011;65911;47.502;19.148;2023-05-13T10:36:40;3.22;;;2.92;;
76978;SDS011;65911;47.502;19.148;2023-05-13T10:46:10;3.40;;;3.10;;
76978;SDS011;65911;47.502;19.148;2023-05-13T10:49:13;2.90;;;2.60;;
76978;SDS011;65911;47.502;19.148;2023-05-13T10:52:19;5.15;;;3.30;;
76978;SDS011;65911;47.502;19.148;2023-05-13T10:55:21;5.78;;;3.10;;
76978;SDS011;65911;47.502;19.148;2023-05-13T10:58:30;3.03;;;2.40;;
76978;SDS011;65911;47.502;19.148;2023-05-13T11:01:34;4.88;;;2.95;;
76978;SDS011;65911;47.502;19.148;2023-05-13T11:04:56;3.45;;;2.95;;
76978;SDS011;65911;47.502;19.148;2023-05-13T11:08:02;4.07;;;2.88;;
76978;SDS011;65911;47.502;19.148;2023-05-13T11:14:22;4.22;;;2.95;;
76978;SDS011;65911;47.502;19.148;2023-05-13T11:17:25;4.80;;;2.97;;
76978;SDS011;65911;47.502;19.148;2023-05-13T11:20:28;4.93;;;2.67;;
76978;SDS011;65911;47.502;19.148;2023-05-13T11:23:50;3.88;;;3.20;;
76978;SDS011;65911;47.502;19.148;2023-05-13T11:26:53;6.03;;;2.80;;
76978;SDS011;65911;47.502;19.148;2023-05-13T11:29:57;6.10;;;2.70;;
76978;SDS011;65911;47.502;19.148;2023-05-13T11:32:59;6.30;;;2.95;;
76978;SDS011;65911;47.502;19.148;2023-05-13T11:36:03;3.95;;;2.90;;
76978;SDS011;65911;47.502;19.148;2023-05-13T11:42:12;5.72;;;3.10;;
76978;SDS011;65911;47.502;19.148;2023-05-13T11:45:18;4.07;;;2.92;;
76978;SDS011;65911;47.502;19.148;2023-05-13T11:48:22;4.97;;;3.30;;
76978;SDS011;65911;47.502;19.148;2023-05-13T11:51:25;3.90;;;3.07;;
76978;SDS011;65911;47.502;19.148;2023-05-13T11:54:27;3.47;;;2.90;;
76978;SDS011;65911;47.502;19.148;2023-05-13T11:57:29;4.60;;;3.00;;
76978;SDS011;65911;47.502;19.148;2023-05-13T12:00:33;4.23;;;3.07;;
76978;SDS011;65911;47.502;19.148;2023-05-13T12:03:36;4.32;;;3.20;;
76978;SDS011;65911;47.502;19.148;2023-05-13T12:06:44;4.60;;;3.17;;
76978;SDS011;65911;47.502;19.148;2023-05-13T12:09:47;3.95;;;3.05;;
76978;SDS011;65911;47.502;19.148;2023-05-13T12:12:50;4.07;;;3.30;;
76978;SDS011;65911;47.502;19.148;2023-05-13T12:15:52;5.13;;;3.30;;
76978;SDS011;65911;47.502;19.148;2023-05-13T12:18:58;5.75;;;2.50;;
76978;SDS011;65911;47.502;19.148;2023-05-13T12:22:01;3.20;;;2.70;;
76978;SDS011;65911;47.502;19.148;2023-05-13T12:28:39;5.90;;;3.17;;
76978;SDS011;65911;47.502;19.148;2023-05-13T12:31:42;3.60;;;2.60;;
76978;SDS011;65911;47.502;19.148;2023-05-13T12:34:47;4.07;;;2.83;;
76978;SDS011;65911;47.502;19.148;2023-05-13T12:37:57;3.85;;;3.00;;
76978;SDS011;65911;47.502;19.148;2023-05-13T12:41:09;5.10;;;3.13;;
76978;SDS011;65911;47.502;19.148;2023-05-13T12:44:13;3.25;;;2.72;;
76978;SDS011;65911;47.502;19.148;2023-05-13T12:47:16;4.53;;;3.20;;
76978;SDS011;65911;47.502;19.148;2023-05-13T12:50:21;3.20;;;2.72;;
76978;SDS011;65911;47.502;19.148;2023-05-13T12:53:24;3.77;;;2.87;;
76978;SDS011;65911;47.502;19.148;2023-05-13T12:56:26;3.65;;;2.53;;
76978;SDS011;65911;47.502;19.148;2023-05-13T12:59:28;4.47;;;3.17;;
76978;SDS011;65911;47.502;19.148;2023-05-13T13:02:32;3.77;;;3.10;;
76978;SDS011;65911;47.502;19.148;2023-05-13T13:05:34;4.90;;;2.90;;
76978;SDS011;65911;47.502;19.148;2023-05-13T13:08:36;4.03;;;2.97;;
76978;SDS011;65911;47.502;19.148;2023-05-13T13:11:39;3.42;;;2.78;;
76978;SDS011;65911;47.502;19.148;2023-05-13T13:14:41;6.15;;;3.10;;
76978;SDS011;65911;47.502;19.148;2023-05-13T13:17:43;4.10;;;3.05;;
76978;SDS011;65911;47.502;19.148;2023-05-13T13:20:45;4.18;;;2.92;;
76978;SDS011;65911;47.502;19.148;2023-05-13T13:23:48;3.27;;;2.40;;
76978;SDS011;65911;47.502;19.148;2023-05-13T13:26:50;7.65;;;3.03;;
76978;SDS011;65911;47.502;19.148;2023-05-13T13:29:54;4.32;;;2.30;;
76978;SDS011;65911;47.502;19.148;2023-05-13T13:32:56;3.43;;;2.50;;
76978;SDS011;65911;47.502;19.148;2023-05-13T13:35:58;4.60;;;2.38;;
76978;SDS011;65911;47.502;19.148;2023-05-13T13:39:01;5.35;;;2.78;;
76978;SDS011;65911;47.502;19.148;2023-05-13T13:42:03;4.00;;;3.47;;
76978;SDS011;65911;47.502;19.148;2023-05-13T13:45:06;3.40;;;2.72;;
76978;SDS011;65911;47.502;19.148;2023-05-13T13:48:08;3.35;;;2.50;;
76978;SDS011;65911;47.502;19.148;2023-05-13T13:51:11;3.28;;;2.45;;
76978;SDS011;65911;47.502;19.148;2023-05-13T13:54:13;3.53;;;2.73;;
76978;SDS011;65911;47.502;19.148;2023-05-13T13:57:15;4.82;;;2.75;;
76978;SDS011;65911;47.502;19.148;2023-05-13T14:00:17;3.83;;;2.90;;
76978;SDS011;65911;47.502;19.148;2023-05-13T14:03:20;3.27;;;2.30;;
76978;SDS011;65911;47.502;19.148;2023-05-13T14:06:22;3.28;;;2.30;;
76978;SDS011;65911;47.502;19.148;2023-05-13T14:09:24;5.47;;;2.67;;
76978;SDS011;65911;47.502;19.148;2023-05-13T14:12:27;5.53;;;3.10;;
76978;SDS011;65911;47.502;19.148;2023-05-13T14:15:29;5.70;;;2.55;;
76978;SDS011;65911;47.502;19.148;2023-05-13T14:18:32;5.38;;;2.92;;
76978;SDS011;65911;47.502;19.148;2023-05-13T14:21:34;3.28;;;2.58;;
76978;SDS011;65911;47.502;19.148;2023-05-13T14:24:36;3.83;;;2.53;;
76978;SDS011;65911;47.502;19.148;2023-05-13T14:27:39;3.28;;;2.83;;
76978;SDS011;65911;47.502;19.148;2023-05-13T14:30:41;3.67;;;2.55;;
76978;SDS011;65911;47.502;19.148;2023-05-13T14:33:43;4.10;;;2.67;;
76978;SDS011;65911;47.502;19.148;2023-05-13T14:36:45;4.13;;;2.50;;
76978;SDS011;65911;47.502;19.148;2023-05-13T14:39:48;2.88;;;2.55;;
76978;SDS011;65911;47.502;19.148;2023-05-13T14:42:51;2.95;;;2.38;;
76978;SDS011;65911;47.502;19.148;2023-05-13T14:45:53;5.15;;;2.97;;
76978;SDS011;65911;47.502;19.148;2023-05-13T14:48:55;3.80;;;2.63;;
76978;SDS011;65911;47.502;19.148;2023-05-13T14:52:00;6.55;;;2.78;;
76978;SDS011;65911;47.502;19.148;2023-05-13T14:55:02;6.23;;;2.97;;
76978;SDS011;65911;47.502;19.148;2023-05-13T14:58:05;4.57;;;2.50;;
76978;SDS011;65911;47.502;19.148;2023-05-13T15:01:10;3.22;;;2.47;;
76978;SDS011;65911;47.502;19.148;2023-05-13T15:04:12;6.23;;;2.70;;
76978;SDS011;65911;47.502;19.148;2023-05-13T15:07:14;3.35;;;2.60;;
76978;SDS011;65911;47.502;19.148;2023-05-13T15:10:17;5.18;;;2.90;;
76978;SDS011;65911;47.502;19.148;2023-05-13T15:13:19;4.38;;;2.92;;
76978;SDS011;65911;47.502;19.148;2023-05-13T15:16:22;2.75;;;2.50;;
76978;SDS011;65911;47.502;19.148;2023-05-13T15:19:24;4.43;;;2.90;;
76978;SDS011;65911;47.502;19.148;2023-05-13T15:22:26;5.22;;;2.85;;
76978;SDS011;65911;47.502;19.148;2023-05-13T15:25:28;5.17;;;2.70;;
76978;SDS011;65911;47.502;19.148;2023-05-13T15:28:31;5.82;;;3.70;;
76978;SDS011;65911;47.502;19.148;2023-05-13T15:31:33;3.80;;;2.60;;
76978;SDS011;65911;47.502;19.148;2023-05-13T15:34:35;5.57;;;2.93;;
76978;SDS011;65911;47.502;19.148;2023-05-13T15:37:39;3.90;;;2.78;;
76978;SDS011;65911;47.502;19.148;2023-05-13T15:40:43;4.13;;;2.83;;
76978;SDS011;65911;47.502;19.148;2023-05-13T15:43:48;6.20;;;3.00;;
76978;SDS011;65911;47.502;19.148;2023-05-13T15:46:50;4.32;;;3.22;;
76978;SDS011;65911;47.502;19.148;2023-05-13T15:49:52;4.22;;;3.08;;
76978;SDS011;65911;47.502;19.148;2023-05-13T15:52:55;3.88;;;2.72;;
76978;SDS011;65911;47.502;19.148;2023-05-13T15:55:57;6.13;;;3.10;;
76978;SDS011;65911;47.502;19.148;2023-05-13T15:58:59;7.40;;;3.53;;
76978;SDS011;65911;47.502;19.148;2023-05-13T16:02:02;2.88;;;2.40;;
76978;SDS011;65911;47.502;19.148;2023-05-13T16:05:07;5.43;;;2.73;;
76978;SDS011;65911;47.502;19.148;2023-05-13T16:08:09;3.80;;;3.08;;
76978;SDS011;65911;47.502;19.148;2023-05-13T16:11:12;5.32;;;2.70;;
76978;SDS011;65911;47.502;19.148;2023-05-13T16:14:14;4.95;;;2.90;;
76978;SDS011;65911;47.502;19.148;2023-05-13T16:17:18;7.10;;;3.17;;
76978;SDS011;65911;47.502;19.148;2023-05-13T16:20:20;4.32;;;2.78;;
76978;SDS011;65911;47.502;19.148;2023-05-13T16:23:23;4.25;;;2.78;;
76978;SDS011;65911;47.502;19.148;2023-05-13T16:26:26;4.23;;;3.20;;
76978;SDS011;65911;47.502;19.148;2023-05-13T16:29:28;6.80;;;3.20;;
76978;SDS011;65911;47.502;19.148;2023-05-13T16:32:31;5.55;;;3.17;;
76978;SDS011;65911;47.502;19.148;2023-05-13T16:35:36;5.13;;;2.83;;
76978;SDS011;65911;47.502;19.148;2023-05-13T16:38:38;5.22;;;2.90;;
76978;SDS011;65911;47.502;19.148;2023-05-13T16:41:42;6.50;;;2.95;;
76978;SDS011;65911;47.502;19.148;2023-05-13T16:44:45;6.50;;;3.10;;
76978;SDS011;65911;47.502;19.148;2023-05-13T16:47:47;4.85;;;3.30;;
76978;SDS011;65911;47.502;19.148;2023-05-13T16:50:50;5.38;;;3.40;;
76978;SDS011;65911;47.502;19.148;2023-05-13T16:53:52;4.43;;;2.88;;
76978;SDS011;65911;47.502;19.148;2023-05-13T16:56:55;4.07;;;3.07;;
76978;SDS011;65911;47.502;19.148;2023-05-13T16:59:57;4.70;;;3.00;;
76978;SDS011;65911;47.502;19.148;2023-05-13T17:03:01;5.75;;;3.08;;
76978;SDS011;65911;47.502;19.148;2023-05-13T17:06:04;4.93;;;3.17;;
76978;SDS011;65911;47.502;19.148;2023-05-13T17:09:08;5.03;;;2.95;;
76978;SDS011;65911;47.502;19.148;2023-05-13T17:12:10;6.20;;;3.45;;
76978;SDS011;65911;47.502;19.148;2023-05-13T17:15:12;4.22;;;3.10;;
76978;SDS011;65911;47.502;19.148;2023-05-13T17:18:14;3.85;;;2.83;;
76978;SDS011;65911;47.502;19.148;2023-05-13T17:21:17;3.28;;;2.75;;
76978;SDS011;65911;47.502;19.148;2023-05-13T17:24:19;5.13;;;3.08;;
76978;SDS011;65911;47.502;19.148;2023-05-13T17:27:23;4.70;;;2.90;;
76978;SDS011;65911;47.502;19.148;2023-05-13T17:30:25;3.95;;;3.28;;
76978;SDS011;65911;47.502;19.148;2023-05-13T17:33:27;5.80;;;3.13;;
76978;SDS011;65911;47.502;19.148;2023-05-13T17:36:29;3.90;;;2.90;;
76978;SDS011;65911;47.502;19.148;2023-05-13T17:39:33;4.65;;;2.92;;
76978;SDS011;65911;47.502;19.148;2023-05-13T17:42:35;4.95;;;2.92;;
76978;SDS011;65911;47.502;19.148;2023-05-13T17:45:37;4.90;;;2.90;;
76978;SDS011;65911;47.502;19.148;2023-05-13T17:48:40;5.05;;;3.25;;
76978;SDS011;65911;47.502;19.148;2023-05-13T17:51:43;5.03;;;3.00;;
76978;SDS011;65911;47.502;19.148;2023-05-13T17:54:45;4.20;;;2.80;;
76978;SDS011;65911;47.502;19.148;2023-05-13T17:57:47;5.10;;;2.90;;
76978;SDS011;65911;47.502;19.148;2023-05-13T18:00:49;5.15;;;3.17;;
76978;SDS011;65911;47.502;19.148;2023-05-13T18:03:51;3.42;;;2.92;;
76978;SDS011;65911;47.502;19.148;2023-05-13T18:06:54;4.97;;;3.20;;
76978;SDS011;65911;47.502;19.148;2023-05-13T18:09:56;4.80;;;2.85;;
76978;SDS011;65911;47.502;19.148;2023-05-13T18:12:58;4.75;;;3.10;;
76978;SDS011;65911;47.502;19.148;2023-05-13T18:16:00;4.97;;;3.10;;
76978;SDS011;65911;47.502;19.148;2023-05-13T18:19:05;6.60;;;3.15;;
76978;SDS011;65911;47.502;19.148;2023-05-13T18:22:07;5.07;;;3.50;;
76978;SDS011;65911;47.502;19.148;2023-05-13T18:25:10;5.07;;;3.60;;
76978;SDS011;65911;47.502;19.148;2023-05-13T18:28:12;5.27;;;3.80;;